sensor_id;sensor_type;location;lat;lon;timestamp;pressure;altitude;pressure_sealevel;temperature
58307;BMP280;44116;50.884;4.768;2023-05-10T00:00:25;100250.0;;;11.8
58307;BMP280;44116;50.884;4.768;2023-05-10T00:02:25;100250.0;;;11.8
58307;BMP280;44116;50.884;4.768;2023-05-10T00:04:25;100250.0;;;11.8
58307;BMP280;44116;50.884;4.768;2023-05-10T00:06:25;100260.0;;;11.8
58307;BMP280;44116;50.884;4.768;2023-05-10T00:08:24;100260.0;;;11.8
58307;BMP280;44116;50.884;4.768;2023-05-10T00:10:24;100260.0;;;11.8
58307;BMP280;44116;50.884;4.768;2023-05-10T00:12:24;100260.0;;;11.8
58307;BMP280;44116;50.884;4.768;2023-05-10T00:14:24;100260.0;;;11.8
58307;BMP280;44116;50.884;4.768;2023-05-10T00:18:23;100250.0;;;11.8
58307;BMP280;44116;50.884;4.768;2023-05-10T00:20:23;100250.0;;;11.8
58307;BMP280;44116;50.884;4.768;2023-05-10T00:22:23;100250.0;;;11.8
58307;BMP280;44116;50.884;4.768;2023-05-10T00:24:23;100250.0;;;11.8
58307;BMP280;44116;50.884;4.768;2023-05-10T00:26:22;100250.0;;;11.8
58307;BMP280;44116;50.884;4.768;2023-05-10T00:28:22;100250.0;;;11.8
58307;BMP280;44116;50.884;4.768;2023-05-10T00:30:22;100250.0;;;11.8
58307;BMP280;44116;50.884;4.768;2023-05-10T00:32:22;100250.0;;;11.8
58307;BMP280;44116;50.884;4.768;2023-05-10T00:36:21;100250.0;;;11.8
58307;BMP280;44116;50.884;4.768;2023-05-10T00:38:21;100250.0;;;11.8
58307;BMP280;44116;50.884;4.768;2023-05-10T00:42:21;100250.0;;;11.8
58307;BMP280;44116;50.884;4.768;2023-05-10T00:44:20;100250.0;;;11.8
58307;BMP280;44116;50.884;4.768;2023-05-10T00:46:20;100250.0;;;11.8
58307;BMP280;44116;50.884;4.768;2023-05-10T00:50:20;100250.0;;;11.8
58307;BMP280;44116;50.884;4.768;2023-05-10T00:52:20;100250.0;;;11.8
58307;BMP280;44116;50.884;4.768;2023-05-10T00:54:19;100240.0;;;11.8
58307;BMP280;44116;50.884;4.768;2023-05-10T00:56:19;100240.0;;;11.8
58307;BMP280;44116;50.884;4.768;2023-05-10T00:58:19;100240.0;;;11.8
58307;BMP280;44116;50.884;4.768;2023-05-10T01:02:18;100230.0;;;11.8
58307;BMP280;44116;50.884;4.768;2023-05-10T01:04:18;100230.0;;;11.8
58307;BMP280;44116;50.884;4.768;2023-05-10T01:06:18;100230.0;;;11.8
58307;BMP280;44116;50.884;4.768;2023-05-10T01:08:18;100240.0;;;11.8
58307;BMP280;44116;50.884;4.768;2023-05-10T01:10:18;100230.0;;;11.8
58307;BMP280;44116;50.884;4.768;2023-05-10T01:12:17;100240.0;;;11.8
58307;BMP280;44116;50.884;4.768;2023-05-10T01:14:18;100240.0;;;11.8
58307;BMP280;44116;50.884;4.768;2023-05-10T01:16:17;100240.0;;;11.8
58307;BMP280;44116;50.884;4.768;2023-05-10T01:18:17;100230.0;;;11.8
58307;BMP280;44116;50.884;4.768;2023-05-10T01:20:17;100240.0;;;11.8
58307;BMP280;44116;50.884;4.768;2023-05-10T01:22:30;100230.0;;;11.8
58307;BMP280;44116;50.884;4.768;2023-05-10T01:26:20;100240.0;;;11.8
58307;BMP280;44116;50.884;4.768;2023-05-10T01:28:21;100230.0;;;11.8
58307;BMP280;44116;50.884;4.768;2023-05-10T01:32:16;100230.0;;;11.8
58307;BMP280;44116;50.884;4.768;2023-05-10T01:34:16;100230.0;;;11.8
58307;BMP280;44116;50.884;4.768;2023-05-10T01:36:17;100230.0;;;11.8
58307;BMP280;44116;50.884;4.768;2023-05-10T01:38:16;100230.0;;;11.8
58307;BMP280;44116;50.884;4.768;2023-05-10T01:40:17;100240.0;;;11.8
58307;BMP280;44116;50.884;4.768;2023-05-10T01:42:16;100240.0;;;11.8
58307;BMP280;44116;50.884;4.768;2023-05-10T01:46:14;100240.0;;;11.8
58307;BMP280;44116;50.884;4.768;2023-05-10T01:48:14;100230.0;;;11.8
58307;BMP280;44116;50.884;4.768;2023-05-10T01:50:15;100240.0;;;11.8
58307;BMP280;44116;50.884;4.768;2023-05-10T01:52:14;100240.0;;;11.8
58307;BMP280;44116;50.884;4.768;2023-05-10T01:54:13;100240.0;;;11.9
58307;BMP280;44116;50.884;4.768;2023-05-10T01:56:13;100240.0;;;11.9
58307;BMP280;44116;50.884;4.768;2023-05-10T01:58:13;100240.0;;;11.8
58307;BMP280;44116;50.884;4.768;2023-05-10T02:00:13;100240.0;;;11.9
58307;BMP280;44116;50.884;4.768;2023-05-10T02:02:12;100240.0;;;11.9
58307;BMP280;44116;50.884;4.768;2023-05-10T02:04:13;100230.0;;;11.8
58307;BMP280;44116;50.884;4.768;2023-05-10T02:06:12;100230.0;;;11.8
58307;BMP280;44116;50.884;4.768;2023-05-10T02:08:12;100240.0;;;11.8
58307;BMP280;44116;50.884;4.768;2023-05-10T02:10:11;100240.0;;;11.8
58307;BMP280;44116;50.884;4.768;2023-05-10T02:12:11;100240.0;;;11.8
58307;BMP280;44116;50.884;4.768;2023-05-10T02:14:11;100250.0;;;11.8
58307;BMP280;44116;50.884;4.768;2023-05-10T02:16:11;100240.0;;;11.8
58307;BMP280;44116;50.884;4.768;2023-05-10T02:18:11;100250.0;;;11.8
58307;BMP280;44116;50.884;4.768;2023-05-10T02:20:11;100250.0;;;11.8
58307;BMP280;44116;50.884;4.768;2023-05-10T02:22:10;100250.0;;;11.7
58307;BMP280;44116;50.884;4.768;2023-05-10T02:24:10;100250.0;;;11.8
58307;BMP280;44116;50.884;4.768;2023-05-10T02:26:10;100260.0;;;11.8
58307;BMP280;44116;50.884;4.768;2023-05-10T02:28:10;100260.0;;;11.7
58307;BMP280;44116;50.884;4.768;2023-05-10T02:30:10;100260.0;;;11.7
58307;BMP280;44116;50.884;4.768;2023-05-10T02:32:09;100260.0;;;11.7
58307;BMP280;44116;50.884;4.768;2023-05-10T02:34:09;100260.0;;;11.7
58307;BMP280;44116;50.884;4.768;2023-05-10T02:36:09;100260.0;;;11.7
58307;BMP280;44116;50.884;4.768;2023-05-10T02:38:08;100270.0;;;11.7
58307;BMP280;44116;50.884;4.768;2023-05-10T02:40:08;100270.0;;;11.8
58307;BMP280;44116;50.884;4.768;2023-05-10T02:44:08;100270.0;;;11.7
58307;BMP280;44116;50.884;4.768;2023-05-10T02:46:08;100270.0;;;11.8
58307;BMP280;44116;50.884;4.768;2023-05-10T02:48:07;100270.0;;;11.7
58307;BMP280;44116;50.884;4.768;2023-05-10T02:50:07;100270.0;;;11.7
58307;BMP280;44116;50.884;4.768;2023-05-10T02:52:07;100270.0;;;11.7
58307;BMP280;44116;50.884;4.768;2023-05-10T02:54:08;100270.0;;;11.8
58307;BMP280;44116;50.884;4.768;2023-05-10T02:56:10;100270.0;;;11.8
58307;BMP280;44116;50.884;4.768;2023-05-10T02:58:06;100270.0;;;11.7
58307;BMP280;44116;50.884;4.768;2023-05-10T03:00:06;100270.0;;;11.8
58307;BMP280;44116;50.884;4.768;2023-05-10T03:02:06;100270.0;;;11.8
58307;BMP280;44116;50.884;4.768;2023-05-10T03:04:06;100270.0;;;11.8
58307;BMP280;44116;50.884;4.768;2023-05-10T03:06:05;100270.0;;;11.7
58307;BMP280;44116;50.884;4.768;2023-05-10T03:08:05;100270.0;;;11.7
58307;BMP280;44116;50.884;4.768;2023-05-10T03:10:05;100270.0;;;11.7
58307;BMP280;44116;50.884;4.768;2023-05-10T03:12:07;100270.0;;;11.8
58307;BMP280;44116;50.884;4.768;2023-05-10T03:14:08;100270.0;;;11.7
58307;BMP280;44116;50.884;4.768;2023-05-10T03:16:05;100270.0;;;11.7
58307;BMP280;44116;50.884;4.768;2023-05-10T03:20:06;100260.0;;;11.7
58307;BMP280;44116;50.884;4.768;2023-05-10T03:22:04;100270.0;;;11.8
58307;BMP280;44116;50.884;4.768;2023-05-10T03:24:05;100270.0;;;11.8
58307;BMP280;44116;50.884;4.768;2023-05-10T03:26:03;100270.0;;;11.7
58307;BMP280;44116;50.884;4.768;2023-05-10T03:28:03;100280.0;;;11.7
58307;BMP280;44116;50.884;4.768;2023-05-10T03:30:03;100280.0;;;11.8
58307;BMP280;44116;50.884;4.768;2023-05-10T03:32:03;100280.0;;;11.7
58307;BMP280;44116;50.884;4.768;2023-05-10T03:34:03;100280.0;;;11.7
58307;BMP280;44116;50.884;4.768;2023-05-10T03:38:02;100290.0;;;11.7
58307;BMP280;44116;50.884;4.768;2023-05-10T03:40:02;100290.0;;;11.7
58307;BMP280;44116;50.884;4.768;2023-05-10T03:42:02;100290.0;;;11.7
58307;BMP280;44116;50.884;4.768;2023-05-10T03:44:02;100290.0;;;11.7
58307;BMP280;44116;50.884;4.768;2023-05-10T03:46:01;100290.0;;;11.7
58307;BMP280;44116;50.884;4.768;2023-05-10T03:48:01;100290.0;;;11.7
58307;BMP280;44116;50.884;4.768;2023-05-10T03:50:01;100290.0;;;11.6
58307;BMP280;44116;50.884;4.768;2023-05-10T03:52:01;100290.0;;;11.7
58307;BMP280;44116;50.884;4.768;2023-05-10T03:54:00;100290.0;;;11.7
58307;BMP280;44116;50.884;4.768;2023-05-10T03:56:00;100290.0;;;11.7
58307;BMP280;44116;50.884;4.768;2023-05-10T03:58:00;100290.0;;;11.6
58307;BMP280;44116;50.884;4.768;2023-05-10T04:00:00;100290.0;;;11.6
58307;BMP280;44116;50.884;4.768;2023-05-10T04:02:00;100290.0;;;11.5
58307;BMP280;44116;50.884;4.768;2023-05-10T04:03:59;100300.0;;;11.5
58307;BMP280;44116;50.884;4.768;2023-05-10T04:05:59;100300.0;;;11.5
58307;BMP280;44116;50.884;4.768;2023-05-10T04:07:59;100290.0;;;11.5
58307;BMP280;44116;50.884;4.768;2023-05-10T04:09:59;100300.0;;;11.5
58307;BMP280;44116;50.884;4.768;2023-05-10T04:13:58;100300.0;;;11.5
58307;BMP280;44116;50.884;4.768;2023-05-10T04:15:58;100300.0;;;11.4
58307;BMP280;44116;50.884;4.768;2023-05-10T04:17:58;100300.0;;;11.5
58307;BMP280;44116;50.884;4.768;2023-05-10T04:19:58;100300.0;;;11.4
58307;BMP280;44116;50.884;4.768;2023-05-10T04:21:58;100300.0;;;11.4
58307;BMP280;44116;50.884;4.768;2023-05-10T04:23:57;100300.0;;;11.4
58307;BMP280;44116;50.884;4.768;2023-05-10T04:25:59;100300.0;;;11.4
58307;BMP280;44116;50.884;4.768;2023-05-10T04:27:57;100300.0;;;11.4
58307;BMP280;44116;50.884;4.768;2023-05-10T04:31:57;100300.0;;;11.4
58307;BMP280;44116;50.884;4.768;2023-05-10T04:33:56;100300.0;;;11.4
58307;BMP280;44116;50.884;4.768;2023-05-10T04:35:56;100300.0;;;11.4
58307;BMP280;44116;50.884;4.768;2023-05-10T04:37:56;100300.0;;;11.3
58307;BMP280;44116;50.884;4.768;2023-05-10T04:39:56;100300.0;;;11.3
58307;BMP280;44116;50.884;4.768;2023-05-10T04:41:56;100300.0;;;11.3
58307;BMP280;44116;50.884;4.768;2023-05-10T04:43:55;100310.0;;;11.4
58307;BMP280;44116;50.884;4.768;2023-05-10T04:45:55;100310.0;;;11.4
58307;BMP280;44116;50.884;4.768;2023-05-10T04:47:55;100300.0;;;11.3
58307;BMP280;44116;50.884;4.768;2023-05-10T04:51:54;100300.0;;;11.3
58307;BMP280;44116;50.884;4.768;2023-05-10T04:53:54;100300.0;;;11.4
58307;BMP280;44116;50.884;4.768;2023-05-10T04:55:54;100300.0;;;11.3
58307;BMP280;44116;50.884;4.768;2023-05-10T04:57:54;100300.0;;;11.3
58307;BMP280;44116;50.884;4.768;2023-05-10T04:59:54;100300.0;;;11.3
58307;BMP280;44116;50.884;4.768;2023-05-10T05:01:53;100300.0;;;11.3
58307;BMP280;44116;50.884;4.768;2023-05-10T05:03:53;100300.0;;;11.4
58307;BMP280;44116;50.884;4.768;2023-05-10T05:05:53;100310.0;;;11.3
58307;BMP280;44116;50.884;4.768;2023-05-10T05:07:53;100310.0;;;11.3
58307;BMP280;44116;50.884;4.768;2023-05-10T05:09:52;100300.0;;;11.4
58307;BMP280;44116;50.884;4.768;2023-05-10T05:11:52;100300.0;;;11.4
58307;BMP280;44116;50.884;4.768;2023-05-10T05:13:52;100310.0;;;11.3
58307;BMP280;44116;50.884;4.768;2023-05-10T05:15:52;100300.0;;;11.4
58307;BMP280;44116;50.884;4.768;2023-05-10T05:17:52;100310.0;;;11.4
58307;BMP280;44116;50.884;4.768;2023-05-10T05:19:51;100310.0;;;11.4
58307;BMP280;44116;50.884;4.768;2023-05-10T05:21:51;100310.0;;;11.4
58307;BMP280;44116;50.884;4.768;2023-05-10T05:23:51;100310.0;;;11.4
58307;BMP280;44116;50.884;4.768;2023-05-10T05:25:51;100320.0;;;11.4
58307;BMP280;44116;50.884;4.768;2023-05-10T05:27:51;100320.0;;;11.5
58307;BMP280;44116;50.884;4.768;2023-05-10T05:29:52;100330.0;;;11.5
58307;BMP280;44116;50.884;4.768;2023-05-10T05:31:50;100320.0;;;11.5
58307;BMP280;44116;50.884;4.768;2023-05-10T05:33:50;100320.0;;;11.4
58307;BMP280;44116;50.884;4.768;2023-05-10T05:37:50;100330.0;;;11.6
58307;BMP280;44116;50.884;4.768;2023-05-10T05:39:49;100330.0;;;11.6
58307;BMP280;44116;50.884;4.768;2023-05-10T05:41:49;100330.0;;;11.6
58307;BMP280;44116;50.884;4.768;2023-05-10T05:43:49;100340.0;;;11.6
58307;BMP280;44116;50.884;4.768;2023-05-10T05:45:49;100340.0;;;11.7
58307;BMP280;44116;50.884;4.768;2023-05-10T05:49:48;100340.0;;;11.6
58307;BMP280;44116;50.884;4.768;2023-05-10T05:51:48;100340.0;;;11.6
58307;BMP280;44116;50.884;4.768;2023-05-10T05:53:48;100350.0;;;11.6
58307;BMP280;44116;50.884;4.768;2023-05-10T05:55:51;100350.0;;;11.6
58307;BMP280;44116;50.884;4.768;2023-05-10T05:57:48;100350.0;;;11.6
58307;BMP280;44116;50.884;4.768;2023-05-10T06:01:47;100350.0;;;11.6
58307;BMP280;44116;50.884;4.768;2023-05-10T06:03:47;100360.0;;;11.6
58307;BMP280;44116;50.884;4.768;2023-05-10T06:05:47;100360.0;;;11.7
58307;BMP280;44116;50.884;4.768;2023-05-10T06:07:47;100360.0;;;11.7
58307;BMP280;44116;50.884;4.768;2023-05-10T06:09:46;100360.0;;;11.7
58307;BMP280;44116;50.884;4.768;2023-05-10T06:11:46;100360.0;;;11.6
58307;BMP280;44116;50.884;4.768;2023-05-10T06:13:46;100370.0;;;11.7
58307;BMP280;44116;50.884;4.768;2023-05-10T06:15:46;100380.0;;;11.7
58307;BMP280;44116;50.884;4.768;2023-05-10T06:17:45;100370.0;;;11.8
58307;BMP280;44116;50.884;4.768;2023-05-10T06:19:45;100370.0;;;11.8
58307;BMP280;44116;50.884;4.768;2023-05-10T06:21:45;100370.0;;;11.7
58307;BMP280;44116;50.884;4.768;2023-05-10T06:23:45;100380.0;;;11.7
58307;BMP280;44116;50.884;4.768;2023-05-10T06:25:45;100380.0;;;11.7
58307;BMP280;44116;50.884;4.768;2023-05-10T06:27:44;100380.0;;;11.7
58307;BMP280;44116;50.884;4.768;2023-05-10T06:29:44;100380.0;;;11.7
58307;BMP280;44116;50.884;4.768;2023-05-10T06:31:44;100380.0;;;11.7
58307;BMP280;44116;50.884;4.768;2023-05-10T06:33:44;100380.0;;;11.7
58307;BMP280;44116;50.884;4.768;2023-05-10T06:35:43;100390.0;;;11.8
58307;BMP280;44116;50.884;4.768;2023-05-10T06:37:43;100390.0;;;11.8
58307;BMP280;44116;50.884;4.768;2023-05-10T06:39:43;100400.0;;;11.9
58307;BMP280;44116;50.884;4.768;2023-05-10T06:41:43;100400.0;;;11.9
58307;BMP280;44116;50.884;4.768;2023-05-10T06:43:43;100400.0;;;11.9
58307;BMP280;44116;50.884;4.768;2023-05-10T06:47:42;100400.0;;;12.0
58307;BMP280;44116;50.884;4.768;2023-05-10T06:49:42;100400.0;;;12.0
58307;BMP280;44116;50.884;4.768;2023-05-10T06:51:42;100400.0;;;12.0
58307;BMP280;44116;50.884;4.768;2023-05-10T06:53:42;100400.0;;;12.0
58307;BMP280;44116;50.884;4.768;2023-05-10T06:55:41;100410.0;;;12.1
58307;BMP280;44116;50.884;4.768;2023-05-10T06:57:41;100410.0;;;12.1
58307;BMP280;44116;50.884;4.768;2023-05-10T06:59:41;100410.0;;;12.1
58307;BMP280;44116;50.884;4.768;2023-05-10T07:01:41;100410.0;;;12.1
58307;BMP280;44116;50.884;4.768;2023-05-10T07:03:41;100410.0;;;12.2
58307;BMP280;44116;50.884;4.768;2023-05-10T07:05:40;100410.0;;;12.2
58307;BMP280;44116;50.884;4.768;2023-05-10T07:07:40;100420.0;;;12.3
58307;BMP280;44116;50.884;4.768;2023-05-10T07:09:40;100410.0;;;12.3
58307;BMP280;44116;50.884;4.768;2023-05-10T07:11:40;100420.0;;;12.3
58307;BMP280;44116;50.884;4.768;2023-05-10T07:13:40;100420.0;;;12.3
58307;BMP280;44116;50.884;4.768;2023-05-10T07:15:39;100420.0;;;12.2
58307;BMP280;44116;50.884;4.768;2023-05-10T07:17:39;100420.0;;;12.3
58307;BMP280;44116;50.884;4.768;2023-05-10T07:19:39;100430.0;;;12.4
58307;BMP280;44116;50.884;4.768;2023-05-10T07:21:39;100430.0;;;12.4
58307;BMP280;44116;50.884;4.768;2023-05-10T07:23:39;100420.0;;;12.5
58307;BMP280;44116;50.884;4.768;2023-05-10T07:25:38;100430.0;;;12.4
58307;BMP280;44116;50.884;4.768;2023-05-10T07:27:38;100430.0;;;12.4
58307;BMP280;44116;50.884;4.768;2023-05-10T07:31:38;100440.0;;;12.4
58307;BMP280;44116;50.884;4.768;2023-05-10T07:33:38;100440.0;;;12.3
58307;BMP280;44116;50.884;4.768;2023-05-10T07:35:37;100440.0;;;12.3
58307;BMP280;44116;50.884;4.768;2023-05-10T07:37:37;100440.0;;;12.3
58307;BMP280;44116;50.884;4.768;2023-05-10T07:39:37;100450.0;;;12.3
58307;BMP280;44116;50.884;4.768;2023-05-10T07:41:37;100450.0;;;12.2
58307;BMP280;44116;50.884;4.768;2023-05-10T07:43:37;100460.0;;;12.2
58307;BMP280;44116;50.884;4.768;2023-05-10T07:45:36;100460.0;;;12.1
58307;BMP280;44116;50.884;4.768;2023-05-10T07:47:36;100470.0;;;12.1
58307;BMP280;44116;50.884;4.768;2023-05-10T07:49:36;100470.0;;;12.1
58307;BMP280;44116;50.884;4.768;2023-05-10T07:51:36;100470.0;;;12.0
58307;BMP280;44116;50.884;4.768;2023-05-10T07:53:36;100480.0;;;12.1
58307;BMP280;44116;50.884;4.768;2023-05-10T07:55:35;100480.0;;;12.1
58307;BMP280;44116;50.884;4.768;2023-05-10T07:57:35;100480.0;;;12.0
58307;BMP280;44116;50.884;4.768;2023-05-10T07:59:35;100480.0;;;12.1
58307;BMP280;44116;50.884;4.768;2023-05-10T08:01:35;100480.0;;;12.0
58307;BMP280;44116;50.884;4.768;2023-05-10T08:03:34;100480.0;;;12.0
58307;BMP280;44116;50.884;4.768;2023-05-10T08:07:34;100490.0;;;11.9
58307;BMP280;44116;50.884;4.768;2023-05-10T08:09:34;100490.0;;;11.9
58307;BMP280;44116;50.884;4.768;2023-05-10T08:11:34;100490.0;;;11.8
58307;BMP280;44116;50.884;4.768;2023-05-10T08:13:33;100490.0;;;11.8
58307;BMP280;44116;50.884;4.768;2023-05-10T08:15:33;100490.0;;;11.8
58307;BMP280;44116;50.884;4.768;2023-05-10T08:17:33;100500.0;;;11.8
58307;BMP280;44116;50.884;4.768;2023-05-10T08:19:33;100500.0;;;11.8
58307;BMP280;44116;50.884;4.768;2023-05-10T08:21:33;100500.0;;;11.7
58307;BMP280;44116;50.884;4.768;2023-05-10T08:23:32;100500.0;;;11.8
58307;BMP280;44116;50.884;4.768;2023-05-10T08:25:32;100500.0;;;11.8
58307;BMP280;44116;50.884;4.768;2023-05-10T08:27:32;100500.0;;;11.8
58307;BMP280;44116;50.884;4.768;2023-05-10T08:29:32;100510.0;;;11.7
58307;BMP280;44116;50.884;4.768;2023-05-10T08:31:31;100510.0;;;11.8
58307;BMP280;44116;50.884;4.768;2023-05-10T08:33:31;100510.0;;;11.7
58307;BMP280;44116;50.884;4.768;2023-05-10T08:35:31;100510.0;;;11.7
58307;BMP280;44116;50.884;4.768;2023-05-10T08:37:31;100520.0;;;11.6
58307;BMP280;44116;50.884;4.768;2023-05-10T08:39:33;100520.0;;;11.7
58307;BMP280;44116;50.884;4.768;2023-05-10T08:41:31;100520.0;;;11.8
58307;BMP280;44116;50.884;4.768;2023-05-10T08:43:30;100530.0;;;11.7
58307;BMP280;44116;50.884;4.768;2023-05-10T08:47:30;100530.0;;;11.7
58307;BMP280;44116;50.884;4.768;2023-05-10T08:49:30;100530.0;;;11.7
58307;BMP280;44116;50.884;4.768;2023-05-10T08:51:30;100540.0;;;11.8
58307;BMP280;44116;50.884;4.768;2023-05-10T08:53:30;100530.0;;;11.8
58307;BMP280;44116;50.884;4.768;2023-05-10T08:55:29;100540.0;;;11.9
58307;BMP280;44116;50.884;4.768;2023-05-10T08:57:29;100540.0;;;11.9
58307;BMP280;44116;50.884;4.768;2023-05-10T08:59:29;100540.0;;;11.9
58307;BMP280;44116;50.884;4.768;2023-05-10T09:01:28;100540.0;;;12.0
58307;BMP280;44116;50.884;4.768;2023-05-10T09:03:29;100540.0;;;12.0
58307;BMP280;44116;50.884;4.768;2023-05-10T09:05:28;100540.0;;;12.0
58307;BMP280;44116;50.884;4.768;2023-05-10T09:07:28;100540.0;;;11.9
58307;BMP280;44116;50.884;4.768;2023-05-10T09:09:28;100540.0;;;12.0
58307;BMP280;44116;50.884;4.768;2023-05-10T09:11:28;100540.0;;;12.0
58307;BMP280;44116;50.884;4.768;2023-05-10T09:13:27;100540.0;;;12.0
58307;BMP280;44116;50.884;4.768;2023-05-10T09:15:27;100550.0;;;12.1
58307;BMP280;44116;50.884;4.768;2023-05-10T09:17:27;100540.0;;;12.1
58307;BMP280;44116;50.884;4.768;2023-05-10T09:19:27;100550.0;;;12.1
58307;BMP280;44116;50.884;4.768;2023-05-10T09:21:26;100550.0;;;12.1
58307;BMP280;44116;50.884;4.768;2023-05-10T09:23:26;100550.0;;;12.1
58307;BMP280;44116;50.884;4.768;2023-05-10T09:25:26;100550.0;;;12.1
58307;BMP280;44116;50.884;4.768;2023-05-10T09:27:26;100550.0;;;12.1
58307;BMP280;44116;50.884;4.768;2023-05-10T09:29:26;100560.0;;;12.1
58307;BMP280;44116;50.884;4.768;2023-05-10T09:31:42;100550.0;;;12.2
58307;BMP280;44116;50.884;4.768;2023-05-10T09:33:25;100560.0;;;12.1
58307;BMP280;44116;50.884;4.768;2023-05-10T09:35:26;100560.0;;;12.2
58307;BMP280;44116;50.884;4.768;2023-05-10T09:37:28;100560.0;;;12.2
58307;BMP280;44116;50.884;4.768;2023-05-10T09:39:32;100560.0;;;12.3
58307;BMP280;44116;50.884;4.768;2023-05-10T09:41:25;100570.0;;;12.3
58307;BMP280;44116;50.884;4.768;2023-05-10T09:43:24;100570.0;;;12.3
58307;BMP280;44116;50.884;4.768;2023-05-10T09:45:24;100570.0;;;12.3
58307;BMP280;44116;50.884;4.768;2023-05-10T09:49:24;100570.0;;;12.4
58307;BMP280;44116;50.884;4.768;2023-05-10T09:51:24;100580.0;;;12.4
58307;BMP280;44116;50.884;4.768;2023-05-10T09:53:23;100580.0;;;12.5
58307;BMP280;44116;50.884;4.768;2023-05-10T09:55:24;100580.0;;;12.4
58307;BMP280;44116;50.884;4.768;2023-05-10T09:57:23;100580.0;;;12.4
58307;BMP280;44116;50.884;4.768;2023-05-10T10:03:22;100580.0;;;12.6
58307;BMP280;44116;50.884;4.768;2023-05-10T10:05:27;100580.0;;;12.6
58307;BMP280;44116;50.884;4.768;2023-05-10T10:07:22;100580.0;;;12.7
58307;BMP280;44116;50.884;4.768;2023-05-10T10:09:21;100580.0;;;12.7
58307;BMP280;44116;50.884;4.768;2023-05-10T10:11:21;100580.0;;;12.7
58307;BMP280;44116;50.884;4.768;2023-05-10T10:13:21;100580.0;;;12.8
58307;BMP280;44116;50.884;4.768;2023-05-10T10:15:21;100580.0;;;12.8
58307;BMP280;44116;50.884;4.768;2023-05-10T10:19:21;100590.0;;;12.8
58307;BMP280;44116;50.884;4.768;2023-05-10T10:21:20;100590.0;;;12.8
58307;BMP280;44116;50.884;4.768;2023-05-10T10:23:20;100590.0;;;12.7
58307;BMP280;44116;50.884;4.768;2023-05-10T10:25:20;100600.0;;;12.8
58307;BMP280;44116;50.884;4.768;2023-05-10T10:29:21;100600.0;;;12.9
58307;BMP280;44116;50.884;4.768;2023-05-10T10:33:28;100600.0;;;12.9
58307;BMP280;44116;50.884;4.768;2023-05-10T10:37:18;100600.0;;;13.0
58307;BMP280;44116;50.884;4.768;2023-05-10T10:39:18;100600.0;;;13.0
58307;BMP280;44116;50.884;4.768;2023-05-10T10:41:26;100590.0;;;13.0
58307;BMP280;44116;50.884;4.768;2023-05-10T10:43:21;100600.0;;;13.0
58307;BMP280;44116;50.884;4.768;2023-05-10T10:45:18;100600.0;;;12.9
58307;BMP280;44116;50.884;4.768;2023-05-10T10:47:22;100600.0;;;13.1
58307;BMP280;44116;50.884;4.768;2023-05-10T10:49:17;100600.0;;;12.9
58307;BMP280;44116;50.884;4.768;2023-05-10T10:51:17;100600.0;;;13.0
58307;BMP280;44116;50.884;4.768;2023-05-10T10:53:17;100590.0;;;12.9
58307;BMP280;44116;50.884;4.768;2023-05-10T10:55:17;100590.0;;;13.0
58307;BMP280;44116;50.884;4.768;2023-05-10T11:05:24;100590.0;;;13.4
58307;BMP280;44116;50.884;4.768;2023-05-10T11:07:16;100590.0;;;13.6
58307;BMP280;44116;50.884;4.768;2023-05-10T11:09:15;100590.0;;;13.7
58307;BMP280;44116;50.884;4.768;2023-05-10T11:11:15;100580.0;;;13.8
58307;BMP280;44116;50.884;4.768;2023-05-10T11:13:15;100580.0;;;13.6
58307;BMP280;44116;50.884;4.768;2023-05-10T11:15:15;100580.0;;;13.8
58307;BMP280;44116;50.884;4.768;2023-05-10T11:17:22;100580.0;;;13.8
58307;BMP280;44116;50.884;4.768;2023-05-10T11:19:15;100590.0;;;13.9
58307;BMP280;44116;50.884;4.768;2023-05-10T11:21:14;100580.0;;;14.0
58307;BMP280;44116;50.884;4.768;2023-05-10T11:23:14;100580.0;;;14.2
58307;BMP280;44116;50.884;4.768;2023-05-10T11:25:14;100580.0;;;14.6
58307;BMP280;44116;50.884;4.768;2023-05-10T11:27:14;100580.0;;;14.3
58307;BMP280;44116;50.884;4.768;2023-05-10T11:29:14;100580.0;;;14.5
58307;BMP280;44116;50.884;4.768;2023-05-10T11:31:14;100590.0;;;14.4
58307;BMP280;44116;50.884;4.768;2023-05-10T11:33:15;100580.0;;;14.4
58307;BMP280;44116;50.884;4.768;2023-05-10T11:37:13;100590.0;;;14.6
58307;BMP280;44116;50.884;4.768;2023-05-10T11:39:13;100590.0;;;14.6
58307;BMP280;44116;50.884;4.768;2023-05-10T11:43:13;100600.0;;;14.7
58307;BMP280;44116;50.884;4.768;2023-05-10T11:45:12;100600.0;;;14.9
58307;BMP280;44116;50.884;4.768;2023-05-10T11:47:12;100600.0;;;15.0
58307;BMP280;44116;50.884;4.768;2023-05-10T11:49:12;100600.0;;;15.0
58307;BMP280;44116;50.884;4.768;2023-05-10T11:51:12;100610.0;;;14.9
58307;BMP280;44116;50.884;4.768;2023-05-10T11:57:11;100620.0;;;14.7
58307;BMP280;44116;50.884;4.768;2023-05-10T11:59:13;100620.0;;;14.8
58307;BMP280;44116;50.884;4.768;2023-05-10T12:01:11;100620.0;;;14.7
58307;BMP280;44116;50.884;4.768;2023-05-10T12:05:11;100620.0;;;14.8
58307;BMP280;44116;50.884;4.768;2023-05-10T12:07:11;100620.0;;;14.8
58307;BMP280;44116;50.884;4.768;2023-05-10T12:15:11;100630.0;;;14.8
58307;BMP280;44116;50.884;4.768;2023-05-10T12:17:11;100630.0;;;14.9
58307;BMP280;44116;50.884;4.768;2023-05-10T12:19:10;100630.0;;;14.9
58307;BMP280;44116;50.884;4.768;2023-05-10T12:21:10;100630.0;;;15.3
58307;BMP280;44116;50.884;4.768;2023-05-10T12:27:09;100640.0;;;14.9
58307;BMP280;44116;50.884;4.768;2023-05-10T12:29:12;100640.0;;;15.0
58307;BMP280;44116;50.884;4.768;2023-05-10T12:31:09;100640.0;;;15.1
58307;BMP280;44116;50.884;4.768;2023-05-10T12:33:09;100630.0;;;15.1
58307;BMP280;44116;50.884;4.768;2023-05-10T12:35:08;100650.0;;;14.9
58307;BMP280;44116;50.884;4.768;2023-05-10T12:37:08;100650.0;;;14.8
58307;BMP280;44116;50.884;4.768;2023-05-10T12:39:08;100650.0;;;14.9
58307;BMP280;44116;50.884;4.768;2023-05-10T12:41:09;100660.0;;;14.9
58307;BMP280;44116;50.884;4.768;2023-05-10T12:43:08;100650.0;;;15.0
58307;BMP280;44116;50.884;4.768;2023-05-10T12:45:08;100650.0;;;15.2
58307;BMP280;44116;50.884;4.768;2023-05-10T12:47:07;100660.0;;;15.1
58307;BMP280;44116;50.884;4.768;2023-05-10T12:49:07;100650.0;;;15.1
58307;BMP280;44116;50.884;4.768;2023-05-10T12:51:07;100660.0;;;15.2
58307;BMP280;44116;50.884;4.768;2023-05-10T12:53:07;100650.0;;;15.1
58307;BMP280;44116;50.884;4.768;2023-05-10T12:55:07;100660.0;;;15.2
58307;BMP280;44116;50.884;4.768;2023-05-10T12:57:07;100660.0;;;15.3
58307;BMP280;44116;50.884;4.768;2023-05-10T12:59:07;100660.0;;;15.3
58307;BMP280;44116;50.884;4.768;2023-05-10T13:03:06;100670.0;;;15.2
58307;BMP280;44116;50.884;4.768;2023-05-10T13:05:06;100670.0;;;15.3